sensor_id;sensor_type;location;lat;lon;timestamp;pressure;altitude;pressure_sealevel;temperature;humidity
57572;BME280;44459;43.522;24.470;2022-07-23T00:02:11;100202.25;;;21.83;61.04
57572;BME280;44459;43.522;24.470;2022-07-23T00:04:36;100206.94;;;21.78;61.24
57572;BME280;44459;43.522;24.470;2022-07-23T00:07:02;100197.19;;;21.76;61.79
57572;BME280;44459;43.522;24.470;2022-07-23T00:09:27;100201.81;;;21.72;62.07
57572;BME280;44459;43.522;24.470;2022-07-23T00:11:55;100203.81;;;21.67;62.13
57572;BME280;44459;43.522;24.470;2022-07-23T00:14:20;100195.88;;;21.64;62.23
57572;BME280;44459;43.522;24.470;2022-07-23T00:16:46;100196.13;;;21.58;62.66
57572;BME280;44459;43.522;24.470;2022-07-23T00:19:11;100194.47;;;21.54;62.87
57572;BME280;44459;43.522;24.470;2022-07-23T00:21:36;100187.34;;;21.53;62.66
57572;BME280;44459;43.522;24.470;2022-07-23T00:24:02;100191.09;;;21.49;62.90
57572;BME280;44459;43.522;24.470;2022-07-23T00:26:27;100188.53;;;21.46;62.76
57572;BME280;44459;43.522;24.470;2022-07-23T00:28:52;100187.84;;;21.41;62.80
57572;BME280;44459;43.522;24.470;2022-07-23T00:31:18;100188.81;;;21.38;63.31
57572;BME280;44459;43.522;24.470;2022-07-23T00:33:43;100193.44;;;21.35;63.80
57572;BME280;44459;43.522;24.470;2022-07-23T00:36:08;100186.44;;;21.31;64.14
57572;BME280;44459;43.522;24.470;2022-07-23T00:38:34;100196.44;;;21.27;64.49
57572;BME280;44459;43.522;24.470;2022-07-23T00:40:59;100195.59;;;21.25;63.65
57572;BME280;44459;43.522;24.470;2022-07-23T00:43:24;100194.84;;;21.22;63.85
57572;BME280;44459;43.522;24.470;2022-07-23T00:45:50;100188.66;;;21.20;64.30
57572;BME280;44459;43.522;24.470;2022-07-23T00:48:15;100187.91;;;21.16;64.84
57572;BME280;44459;43.522;24.470;2022-07-23T00:50:40;100191.53;;;21.15;65.06
57572;BME280;44459;43.522;24.470;2022-07-23T00:53:06;100189.75;;;21.14;64.75
57572;BME280;44459;43.522;24.470;2022-07-23T00:55:31;100197.06;;;21.11;64.64
57572;BME280;44459;43.522;24.470;2022-07-23T00:57:57;100196.22;;;21.08;64.66
57572;BME280;44459;43.522;24.470;2022-07-23T01:00:23;100198.00;;;21.08;64.88
57572;BME280;44459;43.522;24.470;2022-07-23T01:02:48;100198.09;;;21.06;64.87
57572;BME280;44459;43.522;24.470;2022-07-23T01:05:14;100193.69;;;21.04;64.90
57572;BME280;44459;43.522;24.470;2022-07-23T01:07:39;100193.13;;;20.96;65.15
57572;BME280;44459;43.522;24.470;2022-07-23T01:10:05;100195.97;;;20.91;65.56
57572;BME280;44459;43.522;24.470;2022-07-23T01:12:51;100196.97;;;20.89;66.25
57572;BME280;44459;43.522;24.470;2022-07-23T01:15:17;100192.63;;;20.85;65.71
57572;BME280;44459;43.522;24.470;2022-07-23T01:17:42;100195.47;;;20.80;65.43
57572;BME280;44459;43.522;24.470;2022-07-23T01:20:07;100190.22;;;20.77;65.47
57572;BME280;44459;43.522;24.470;2022-07-23T01:22:33;100192.91;;;20.77;65.67
57572;BME280;44459;43.522;24.470;2022-07-23T01:24:58;100184.97;;;20.74;66.08
57572;BME280;44459;43.522;24.470;2022-07-23T01:27:23;100187.75;;;20.71;65.66
57572;BME280;44459;43.522;24.470;2022-07-23T01:29:49;100187.00;;;20.68;65.42
57572;BME280;44459;43.522;24.470;2022-07-23T01:32:14;100184.47;;;20.63;65.85
57572;BME280;44459;43.522;24.470;2022-07-23T01:34:39;100186.34;;;20.61;66.15
57572;BME280;44459;43.522;24.470;2022-07-23T01:37:05;100193.72;;;20.54;66.36
57572;BME280;44459;43.522;24.470;2022-07-23T01:39:31;100194.78;;;20.50;65.78
57572;BME280;44459;43.522;24.470;2022-07-23T01:41:56;100190.38;;;20.48;65.51
57572;BME280;44459;43.522;24.470;2022-07-23T01:44:21;100193.94;;;20.48;65.47
57572;BME280;44459;43.522;24.470;2022-07-23T01:46:47;100194.81;;;20.49;66.31
57572;BME280;44459;43.522;24.470;2022-07-23T01:49:12;100195.72;;;20.48;66.08
57572;BME280;44459;43.522;24.470;2022-07-23T01:51:37;100200.16;;;20.49;66.37
57572;BME280;44459;43.522;24.470;2022-07-23T01:54:22;100194.09;;;20.44;65.42
57572;BME280;44459;43.522;24.470;2022-07-23T01:56:48;100195.91;;;20.43;66.03
57572;BME280;44459;43.522;24.470;2022-07-23T01:59:13;100197.75;;;20.41;66.47
57572;BME280;44459;43.522;24.470;2022-07-23T02:01:38;100189.69;;;20.41;66.53
57572;BME280;44459;43.522;24.470;2022-07-23T02:04:04;100193.44;;;20.37;66.77
57572;BME280;44459;43.522;24.470;2022-07-23T02:06:29;100197.06;;;20.36;66.28
57572;BME280;44459;43.522;24.470;2022-07-23T02:08:55;100189.00;;;20.36;67.37
57572;BME280;44459;43.522;24.470;2022-07-23T02:11:20;100197.09;;;20.35;67.45
57572;BME280;44459;43.522;24.470;2022-07-23T02:13:45;100185.56;;;20.33;67.40
57572;BME280;44459;43.522;24.470;2022-07-23T02:16:10;100194.63;;;20.29;67.18
57572;BME280;44459;43.522;24.470;2022-07-23T02:18:36;100192.88;;;20.28;66.92
57572;BME280;44459;43.522;24.470;2022-07-23T02:21:01;100196.53;;;20.24;67.04
57572;BME280;44459;43.522;24.470;2022-07-23T02:23:26;100202.88;;;20.21;67.35
57572;BME280;44459;43.522;24.470;2022-07-23T02:25:52;100192.31;;;20.17;67.50
57572;BME280;44459;43.522;24.470;2022-07-23T02:28:17;100200.41;;;20.15;67.15
57572;BME280;44459;43.522;24.470;2022-07-23T02:30:42;100199.59;;;20.13;67.62
57572;BME280;44459;43.522;24.470;2022-07-23T02:33:08;100207.69;;;20.12;67.92
57572;BME280;44459;43.522;24.470;2022-07-23T02:35:33;100202.47;;;20.07;67.27
57572;BME280;44459;43.522;24.470;2022-07-23T02:37:59;100209.84;;;20.00;67.52
57572;BME280;44459;43.522;24.470;2022-07-23T02:40:24;100199.25;;;19.96;68.00
57572;BME280;44459;43.522;24.470;2022-07-23T02:42:49;100209.19;;;19.92;68.21
57572;BME280;44459;43.522;24.470;2022-07-23T02:45:14;100210.16;;;19.91;68.85
57572;BME280;44459;43.522;24.470;2022-07-23T02:47:40;100213.78;;;19.89;68.15
57572;BME280;44459;43.522;24.470;2022-07-23T02:50:05;100208.50;;;19.87;67.49
57572;BME280;44459;43.522;24.470;2022-07-23T02:52:32;100213.09;;;19.82;66.91
57572;BME280;44459;43.522;24.470;2022-07-23T02:54:57;100221.34;;;19.76;67.67
57572;BME280;44459;43.522;24.470;2022-07-23T02:57:22;100221.41;;;19.75;68.50
57572;BME280;44459;43.522;24.470;2022-07-23T02:59:47;100221.53;;;19.70;68.12
57572;BME280;44459;43.522;24.470;2022-07-23T03:02:13;100228.72;;;19.68;67.40
57572;BME280;44459;43.522;24.470;2022-07-23T03:04:38;100222.69;;;19.62;67.36
57572;BME280;44459;43.522;24.470;2022-07-23T03:07:03;100232.72;;;19.55;67.72
57572;BME280;44459;43.522;24.470;2022-07-23T03:09:29;100231.81;;;19.56;68.15
57572;BME280;44459;43.522;24.470;2022-07-23T03:11:54;100234.38;;;19.59;69.15
57572;BME280;44459;43.522;24.470;2022-07-23T03:14:19;100230.78;;;19.60;68.76
57572;BME280;44459;43.522;24.470;2022-07-23T03:16:45;100236.16;;;19.60;68.30
57572;BME280;44459;43.522;24.470;2022-07-23T03:19:10;100243.22;;;19.61;67.63
57572;BME280;44459;43.522;24.470;2022-07-23T03:21:35;100239.75;;;19.59;67.65
57572;BME280;44459;43.522;24.470;2022-07-23T03:24:05;100239.72;;;19.61;67.62
57572;BME280;44459;43.522;24.470;2022-07-23T03:26:30;100242.31;;;19.62;67.80
57572;BME280;44459;43.522;24.470;2022-07-23T03:28:55;100256.56;;;19.64;68.13
57572;BME280;44459;43.522;24.470;2022-07-23T03:31:21;100246.66;;;19.66;67.62
57572;BME280;44459;43.522;24.470;2022-07-23T03:33:46;100252.91;;;19.67;67.83
57572;BME280;44459;43.522;24.470;2022-07-23T03:36:11;100252.72;;;19.73;69.48
57572;BME280;44459;43.522;24.470;2022-07-23T03:38:37;100256.22;;;19.75;69.35
57572;BME280;44459;43.522;24.470;2022-07-23T03:41:02;100252.56;;;19.77;68.65
57572;BME280;44459;43.522;24.470;2022-07-23T03:43:27;100255.16;;;19.80;67.95
57572;BME280;44459;43.522;24.470;2022-07-23T03:45:52;100243.47;;;19.83;67.29
57572;BME280;44459;43.522;24.470;2022-07-23T03:48:18;100248.72;;;19.86;67.70
57572;BME280;44459;43.522;24.470;2022-07-23T03:50:43;100249.50;;;19.89;68.73
57572;BME280;44459;43.522;24.470;2022-07-23T03:53:08;100249.34;;;19.94;67.33
57572;BME280;44459;43.522;24.470;2022-07-23T03:55:34;100248.34;;;19.98;66.90
57572;BME280;44459;43.522;24.470;2022-07-23T03:57:59;100240.97;;;20.04;66.82
57572;BME280;44459;43.522;24.470;2022-07-23T04:00:24;100237.16;;;20.12;66.45
57572;BME280;44459;43.522;24.470;2022-07-23T04:02:50;100237.69;;;20.23;67.03
57572;BME280;44459;43.522;24.470;2022-07-23T04:05:15;100239.19;;;20.33;66.82
57572;BME280;44459;43.522;24.470;2022-07-23T04:07:40;100239.72;;;20.42;66.73
57572;BME280;44459;43.522;24.470;2022-07-23T04:10:06;100242.00;;;20.54;67.03
57572;BME280;44459;43.522;24.470;2022-07-23T04:12:31;100246.06;;;20.66;66.50
57572;BME280;44459;43.522;24.470;2022-07-23T04:14:56;100251.94;;;20.77;65.76
57572;BME280;44459;43.522;24.470;2022-07-23T04:17:22;100247.94;;;20.89;65.44
57572;BME280;44459;43.522;24.470;2022-07-23T04:19:47;100256.41;;;21.01;65.53
57572;BME280;44459;43.522;24.470;2022-07-23T04:22:13;100260.44;;;21.15;64.46
57572;BME280;44459;43.522;24.470;2022-07-23T04:24:38;100257.44;;;21.24;64.61
57572;BME280;44459;43.522;24.470;2022-07-23T04:27:04;100258.72;;;21.37;63.60
57572;BME280;44459;43.522;24.470;2022-07-23T04:29:29;100259.13;;;21.49;63.10
57572;BME280;44459;43.522;24.470;2022-07-23T04:31:55;100253.22;;;21.63;62.32
57572;BME280;44459;43.522;24.470;2022-07-23T04:34:20;100256.38;;;21.74;61.93
57572;BME280;44459;43.522;24.470;2022-07-23T04:36:45;100254.91;;;21.89;61.51
57572;BME280;44459;43.522;24.470;2022-07-23T04:39:11;100256.28;;;22.00;60.44
57572;BME280;44459;43.522;24.470;2022-07-23T04:41:36;100266.47;;;22.14;60.34
57572;BME280;44459;43.522;24.470;2022-07-23T04:44:02;100275.69;;;22.29;59.73
57572;BME280;44459;43.522;24.470;2022-07-23T04:46:27;100267.94;;;22.43;59.46
57572;BME280;44459;43.522;24.470;2022-07-23T04:48:53;100268.19;;;22.58;59.12
57572;BME280;44459;43.522;24.470;2022-07-23T04:51:18;100268.41;;;22.74;58.10
57572;BME280;44459;43.522;24.470;2022-07-23T04:53:43;100274.03;;;22.90;57.95
57572;BME280;44459;43.522;24.470;2022-07-23T04:56:09;100270.72;;;23.03;58.05
57572;BME280;44459;43.522;24.470;2022-07-23T04:58:34;100264.53;;;23.22;57.96
57572;BME280;44459;43.522;24.470;2022-07-23T05:01:00;100267.31;;;23.39;57.19
57572;BME280;44459;43.522;24.470;2022-07-23T05:03:25;100275.59;;;23.54;56.39
57572;BME280;44459;43.522;24.470;2022-07-23T05:05:50;100259.75;;;23.67;56.59
57572;BME280;44459;43.522;24.470;2022-07-23T05:08:15;100270.72;;;23.81;55.78
57572;BME280;44459;43.522;24.470;2022-07-23T05:10:41;100267.38;;;23.95;55.70
57572;BME280;44459;43.522;24.470;2022-07-23T05:13:06;100263.06;;;24.10;54.96
57572;BME280;44459;43.522;24.470;2022-07-23T05:15:32;100269.56;;;24.24;55.08
57572;BME280;44459;43.522;24.470;2022-07-23T05:17:57;100263.47;;;24.38;54.32
57572;BME280;44459;43.522;24.470;2022-07-23T05:20:22;100266.34;;;24.52;54.41
57572;BME280;44459;43.522;24.470;2022-07-23T05:22:48;100263.66;;;24.69;54.25
57572;BME280;44459;43.522;24.470;2022-07-23T05:25:13;100262.81;;;24.86;53.05
57572;BME280;44459;43.522;24.470;2022-07-23T05:27:39;100267.38;;;25.02;53.00
57572;BME280;44459;43.522;24.470;2022-07-23T05:30:04;100267.34;;;25.20;52.25
57572;BME280;44459;43.522;24.470;2022-07-23T05:32:31;100266.44;;;25.36;52.16
57572;BME280;44459;43.522;24.470;2022-07-23T05:34:56;100262.84;;;25.53;51.49
57572;BME280;44459;43.522;24.470;2022-07-23T05:37:22;100261.03;;;25.69;51.17
57572;BME280;44459;43.522;24.470;2022-07-23T05:39:47;100256.53;;;25.85;50.78
57572;BME280;44459;43.522;24.470;2022-07-23T05:42:12;100264.47;;;26.04;50.51
57572;BME280;44459;43.522;24.470;2022-07-23T05:44:38;100264.56;;;26.18;50.30
57572;BME280;44459;43.522;24.470;2022-07-23T05:47:03;100265.47;;;26.34;49.22
57572;BME280;44459;43.522;24.470;2022-07-23T05:49:28;100267.25;;;26.49;49.31
57572;BME280;44459;43.522;24.470;2022-07-23T05:51:54;100273.22;;;26.70;49.63
57572;BME280;44459;43.522;24.470;2022-07-23T05:54:19;100274.09;;;26.86;48.48
57572;BME280;44459;43.522;24.470;2022-07-23T05:56:45;100274.91;;;27.02;47.54
57572;BME280;44459;43.522;24.470;2022-07-23T05:59:10;100281.25;;;27.17;46.98
57572;BME280;44459;43.522;24.470;2022-07-23T06:01:37;100282.78;;;27.35;46.75
57572;BME280;44459;43.522;24.470;2022-07-23T06:04:03;100270.16;;;27.50;46.84
57572;BME280;44459;43.522;24.470;2022-07-23T06:06:28;100275.97;;;27.72;46.93
57572;BME280;44459;43.522;24.470;2022-07-23T06:08:53;100267.41;;;27.92;46.34
57572;BME280;44459;43.522;24.470;2022-07-23T06:11:19;100271.94;;;28.06;45.65
57572;BME280;44459;43.522;24.470;2022-07-23T06:13:44;100269.03;;;28.23;45.18
57572;BME280;44459;43.522;24.470;2022-07-23T06:16:10;100268.69;;;28.42;45.32
57572;BME280;44459;43.522;24.470;2022-07-23T06:18:35;100270.25;;;28.59;44.77
57572;BME280;44459;43.522;24.470;2022-07-23T06:21:00;100268.19;;;28.76;44.87
57572;BME280;44459;43.522;24.470;2022-07-23T06:23:26;100268.44;;;28.98;43.66
57572;BME280;44459;43.522;24.470;2022-07-23T06:25:51;100260.75;;;29.18;43.82
57572;BME280;44459;43.522;24.470;2022-07-23T06:28:17;100261.56;;;29.32;42.54
57572;BME280;44459;43.522;24.470;2022-07-23T06:30:42;100264.69;;;29.52;42.90
57572;BME280;44459;43.522;24.470;2022-07-23T06:33:07;100268.63;;;29.60;41.52
57572;BME280;44459;43.522;24.470;2022-07-23T06:35:33;100267.28;;;29.66;41.46
57572;BME280;44459;43.522;24.470;2022-07-23T06:37:58;100260.09;;;29.90;42.46
57572;BME280;44459;43.522;24.470;2022-07-23T06:40:24;100265.94;;;30.09;42.42
57572;BME280;44459;43.522;24.470;2022-07-23T06:42:49;100258.75;;;30.32;41.09
57572;BME280;44459;43.522;24.470;2022-07-23T06:45:14;100262.88;;;30.50;40.20
57572;BME280;44459;43.522;24.470;2022-07-23T06:47:40;100261.47;;;30.68;40.24
57572;BME280;44459;43.522;24.470;2022-07-23T06:50:06;100264.59;;;30.86;39.91
57572;BME280;44459;43.522;24.470;2022-07-23T06:52:32;100258.41;;;31.08;40.48
57572;BME280;44459;43.522;24.470;2022-07-23T06:54:57;100249.50;;;31.28;39.99
57572;BME280;44459;43.522;24.470;2022-07-23T06:57:22;100251.81;;;31.56;42.84
57572;BME280;44459;43.522;24.470;2022-07-23T06:59:50;100249.97;;;31.79;42.38
57572;BME280;44459;43.522;24.470;2022-07-23T07:02:15;100251.78;;;32.01;39.69
57572;BME280;44459;43.522;24.470;2022-07-23T07:04:41;100254.78;;;32.09;36.76
57572;BME280;44459;43.522;24.470;2022-07-23T07:07:06;100246.56;;;32.31;37.36
57572;BME280;44459;43.522;24.470;2022-07-23T07:09:31;100250.06;;;32.54;36.49
57572;BME280;44459;43.522;24.470;2022-07-23T07:11:57;100246.41;;;32.75;36.31
57572;BME280;44459;43.522;24.470;2022-07-23T07:14:22;100249.81;;;32.88;38.41
57572;BME280;44459;43.522;24.470;2022-07-23T07:16:47;100243.91;;;33.04;35.96
57572;BME280;44459;43.522;24.470;2022-07-23T07:19:13;100244.13;;;32.80;34.58
57572;BME280;44459;43.522;24.470;2022-07-23T07:21:38;100250.47;;;32.81;36.99
57572;BME280;44459;43.522;24.470;2022-07-23T07:24:04;100241.38;;;33.12;37.01
57572;BME280;44459;43.522;24.470;2022-07-23T07:26:29;100242.28;;;33.43;36.85
57572;BME280;44459;43.522;24.470;2022-07-23T07:28:56;100246.13;;;33.61;37.38
57572;BME280;44459;43.522;24.470;2022-07-23T07:31:21;100235.44;;;33.88;35.92
57572;BME280;44459;43.522;24.470;2022-07-23T07:33:46;100238.66;;;33.94;34.19
57572;BME280;44459;43.522;24.470;2022-07-23T07:36:12;100244.03;;;34.05;34.40
57572;BME280;44459;43.522;24.470;2022-07-23T07:38:38;100247.69;;;34.15;34.42
57572;BME280;44459;43.522;24.470;2022-07-23T07:41:03;100243.38;;;34.22;33.36
57572;BME280;44459;43.522;24.470;2022-07-23T07:43:28;100241.13;;;34.46;35.50
57572;BME280;44459;43.522;24.470;2022-07-23T07:45:54;100240.81;;;34.49;33.48
57572;BME280;44459;43.522;24.470;2022-07-23T07:48:19;100236.66;;;34.64;32.81
57572;BME280;44459;43.522;24.470;2022-07-23T07:50:44;100239.16;;;34.67;32.27
57572;BME280;44459;43.522;24.470;2022-07-23T07:53:10;100237.41;;;34.66;33.89
57572;BME280;44459;43.522;24.470;2022-07-23T07:55:35;100242.88;;;35.05;31.93
57572;BME280;44459;43.522;24.470;2022-07-23T07:58:01;100237.78;;;35.10;30.06
57572;BME280;44459;43.522;24.470;2022-07-23T08:00:26;100241.44;;;34.91;30.37
57572;BME280;44459;43.522;24.470;2022-07-23T08:02:52;100238.53;;;35.02;33.63
57572;BME280;44459;43.522;24.470;2022-07-23T08:05:19;100242.31;;;34.72;30.80
57572;BME280;44459;43.522;24.470;2022-07-23T08:07:44;100243.56;;;35.07;32.13
57572;BME280;44459;43.522;24.470;2022-07-23T08:10:10;100238.66;;;35.10;30.91
57572;BME280;44459;43.522;24.470;2022-07-23T08:12:39;100237.31;;;35.43;30.56
57572;BME280;44459;43.522;24.470;2022-07-23T08:15:05;100238.56;;;35.58;32.66
57572;BME280;44459;43.522;24.470;2022-07-23T08:17:30;100233.53;;;35.63;31.09
57572;BME280;44459;43.522;24.470;2022-07-23T08:19:55;100234.16;;;35.84;32.26
57572;BME280;44459;43.522;24.470;2022-07-23T08:22:21;100233.41;;;35.92;30.76
57572;BME280;44459;43.522;24.470;2022-07-23T08:24:46;100237.22;;;36.09;30.43
57572;BME280;44459;43.522;24.470;2022-07-23T08:27:11;100232.91;;;36.24;31.37
57572;BME280;44459;43.522;24.470;2022-07-23T08:29:37;100224.34;;;36.00;28.54
57572;BME280;44459;43.522;24.470;2022-07-23T08:32:02;100228.03;;;36.18;30.42
57572;BME280;44459;43.522;24.470;2022-07-23T08:34:27;100229.84;;;36.00;26.34
57572;BME280;44459;43.522;24.470;2022-07-23T08:36:53;100215.81;;;36.30;28.36
57572;BME280;44459;43.522;24.470;2022-07-23T08:39:18;100222.47;;;36.55;28.58
57572;BME280;44459;43.522;24.470;2022-07-23T08:41:43;100221.75;;;36.70;27.44
57572;BME280;44459;43.522;24.470;2022-07-23T08:44:09;100228.59;;;36.66;26.35
57572;BME280;44459;43.522;24.470;2022-07-23T08:46:34;100226.66;;;36.31;26.64
57572;BME280;44459;43.522;24.470;2022-07-23T08:49:01;100225.53;;;36.24;28.49
57572;BME280;44459;43.522;24.470;2022-07-23T08:51:27;100231.03;;;35.97;25.28
57572;BME280;44459;43.522;24.470;2022-07-23T08:53:52;100225.47;;;36.07;26.37
57572;BME280;44459;43.522;24.470;2022-07-23T08:56:17;100231.34;;;35.94;27.14
57572;BME280;44459;43.522;24.470;2022-07-23T08:58:43;100223.34;;;35.73;25.83
57572;BME280;44459;43.522;24.470;2022-07-23T09:01:08;100231.72;;;35.72;26.89
57572;BME280;44459;43.522;24.470;2022-07-23T09:03:35;100231.28;;;35.76;26.21
57572;BME280;44459;43.522;24.470;2022-07-23T09:06:01;100231.91;;;36.25;29.15
57572;BME280;44459;43.522;24.470;2022-07-23T09:10:59;100230.13;;;36.87;27.50
57572;BME280;44459;43.522;24.470;2022-07-23T09:13:29;100235.84;;;37.03;25.10
57572;BME280;44459;43.522;24.470;2022-07-23T09:15:55;100235.59;;;37.14;25.13
57572;BME280;44459;43.522;24.470;2022-07-23T09:18:28;100229.22;;;37.13;24.85
57572;BME280;44459;43.522;24.470;2022-07-23T09:21:04;100231.19;;;37.29;25.79
57572;BME280;44459;43.522;24.470;2022-07-23T09:23:36;100227.41;;;37.48;26.38
57572;BME280;44459;43.522;24.470;2022-07-23T09:26:02;100218.94;;;37.75;29.46
57572;BME280;44459;43.522;24.470;2022-07-23T09:28:27;100224.38;;;37.93;28.43
57572;BME280;44459;43.522;24.470;2022-07-23T09:30:52;100221.94;;;37.90;24.66
57572;BME280;44459;43.522;24.470;2022-07-23T09:33:18;100223.38;;;38.02;25.30
57572;BME280;44459;43.522;24.470;2022-07-23T09:35:49;100221.00;;;38.15;24.72
57572;BME280;44459;43.522;24.470;2022-07-23T09:38:15;100214.66;;;38.22;24.91
57572;BME280;44459;43.522;24.470;2022-07-23T09:40:41;100210.19;;;38.21;25.39
57572;BME280;44459;43.522;24.470;2022-07-23T09:43:06;100213.22;;;38.02;24.98
57572;BME280;44459;43.522;24.470;2022-07-23T09:45:31;100206.22;;;37.82;24.26
57572;BME280;44459;43.522;24.470;2022-07-23T09:50:55;100209.34;;;37.53;23.44
57572;BME280;44459;43.522;24.470;2022-07-23T09:53:27;100205.28;;;37.65;24.48
57572;BME280;44459;43.522;24.470;2022-07-23T09:55:52;100206.94;;;37.92;23.25
57572;BME280;44459;43.522;24.470;2022-07-23T09:58:23;100208.59;;;38.11;22.72
57572;BME280;44459;43.522;24.470;2022-07-23T10:00:51;100195.47;;;38.05;23.42
57572;BME280;44459;43.522;24.470;2022-07-23T10:03:17;100203.72;;;38.05;23.81
57572;BME280;44459;43.522;24.470;2022-07-23T10:05:42;100197.03;;;38.15;24.63
57572;BME280;44459;43.522;24.470;2022-07-23T10:08:10;100189.81;;;38.14;25.14
57572;BME280;44459;43.522;24.470;2022-07-23T10:10:36;100187.72;;;38.08;23.41
57572;BME280;44459;43.522;24.470;2022-07-23T10:13:03;100185.03;;;38.24;24.38
57572;BME280;44459;43.522;24.470;2022-07-23T10:15:47;100180.94;;;38.45;25.15
57572;BME280;44459;43.522;24.470;2022-07-23T10:18:13;100192.84;;;38.61;25.54
57572;BME280;44459;43.522;24.470;2022-07-23T10:20:38;100178.38;;;38.75;27.76
57572;BME280;44459;43.522;24.470;2022-07-23T10:23:14;100176.13;;;38.95;26.64
57572;BME280;44459;43.522;24.470;2022-07-23T10:38:13;100167.34;;;39.00;23.48
57572;BME280;44459;43.522;24.470;2022-07-23T10:40:54;100163.34;;;38.62;21.32
57572;BME280;44459;43.522;24.470;2022-07-23T10:43:20;100159.97;;;38.10;22.60
57572;BME280;44459;43.522;24.470;2022-07-23T10:45:46;100157.25;;;38.18;22.71
57572;BME280;44459;43.522;24.470;2022-07-23T10:48:15;100158.69;;;38.38;22.40
57572;BME280;44459;43.522;24.470;2022-07-23T10:50:42;100150.44;;;38.62;22.06
57572;BME280;44459;43.522;24.470;2022-07-23T10:53:09;100157.66;;;38.80;23.43
57572;BME280;44459;43.522;24.470;2022-07-23T10:58:03;100146.91;;;38.20;23.80
57572;BME280;44459;43.522;24.470;2022-07-23T11:00:29;100140.09;;;38.56;24.20
57572;BME280;44459;43.522;24.470;2022-07-23T11:02:55;100141.59;;;37.85;22.24
57572;BME280;44459;43.522;24.470;2022-07-23T11:05:25;100137.97;;;37.76;22.15
57572;BME280;44459;43.522;24.470;2022-07-23T11:10:35;100126.25;;;38.32;22.72
57572;BME280;44459;43.522;24.470;2022-07-23T11:21:42;100110.25;;;39.47;25.41
57572;BME280;44459;43.522;24.470;2022-07-23T11:34:31;100104.03;;;39.45;21.00
57572;BME280;44459;43.522;24.470;2022-07-23T11:36:57;100096.03;;;39.58;19.92
57572;BME280;44459;43.522;24.470;2022-07-23T11:39:25;100100.28;;;39.77;19.76
57572;BME280;44459;43.522;24.470;2022-07-23T11:41:51;100098.28;;;39.08;19.29
57572;BME280;44459;43.522;24.470;2022-07-23T11:44:33;100100.03;;;38.93;19.98
57572;BME280;44459;43.522;24.470;2022-07-23T11:46:59;100094.50;;;38.85;20.12
57572;BME280;44459;43.522;24.470;2022-07-23T11:49:25;100103.00;;;38.83;19.63
57572;BME280;44459;43.522;24.470;2022-07-23T11:54:31;100093.44;;;39.02;20.53
57572;BME280;44459;43.522;24.470;2022-07-23T11:56:57;100090.00;;;39.08;19.64
57572;BME280;44459;43.522;24.470;2022-07-23T11:59:24;100090.38;;;39.44;20.88
57572;BME280;44459;43.522;24.470;2022-07-23T12:01:56;100082.50;;;39.71;22.32
57572;BME280;44459;43.522;24.470;2022-07-23T12:04:23;100083.44;;;39.95;21.80
57572;BME280;44459;43.522;24.470;2022-07-23T12:06:48;100083.56;;;40.01;19.66
57572;BME280;44459;43.522;24.470;2022-07-23T12:09:13;100083.75;;;39.69;19.42
57572;BME280;44459;43.522;24.470;2022-07-23T12:11:39;100084.34;;;39.48;18.93
57572;BME280;44459;43.522;24.470;2022-07-23T12:14:04;100077.31;;;39.38;18.58
57572;BME280;44459;43.522;24.470;2022-07-23T12:16:29;100071.53;;;39.55;20.79
57572;BME280;44459;43.522;24.470;2022-07-23T12:18:55;100065.84;;;39.49;21.13
57572;BME280;44459;43.522;24.470;2022-07-23T12:21:21;100067.53;;;39.89;21.93
57572;BME280;44459;43.522;24.470;2022-07-23T12:23:48;100071.28;;;39.65;20.18
57572;BME280;44459;43.522;24.470;2022-07-23T12:26:13;100065.81;;;39.57;21.77
57572;BME280;44459;43.522;24.470;2022-07-23T12:28:38;100065.13;;;39.86;19.90
57572;BME280;44459;43.522;24.470;2022-07-23T12:31:04;100055.03;;;39.39;20.58
57572;BME280;44459;43.522;24.470;2022-07-23T12:33:31;100051.94;;;39.34;21.51
57572;BME280;44459;43.522;24.470;2022-07-23T12:35:59;100053.91;;;39.56;21.84
57572;BME280;44459;43.522;24.470;2022-07-23T12:38:25;100058.31;;;39.73;19.33
57572;BME280;44459;43.522;24.470;2022-07-23T12:40:55;100049.81;;;39.75;21.96
57572;BME280;44459;43.522;24.470;2022-07-23T12:45:50;100049.53;;;39.93;20.51
57572;BME280;44459;43.522;24.470;2022-07-23T12:50:43;100047.63;;;39.93;18.84
57572;BME280;44459;43.522;24.470;2022-07-23T12:53:09;100043.03;;;40.08;22.94
57572;BME280;44459;43.522;24.470;2022-07-23T12:55:35;100037.81;;;40.13;19.44
57572;BME280;44459;43.522;24.470;2022-07-23T12:58:04;100047.31;;;40.19;21.15
57572;BME280;44459;43.522;24.470;2022-07-23T13:00:30;100032.28;;;39.91;20.69
57572;BME280;44459;43.522;24.470;2022-07-23T13:02:56;100029.31;;;39.69;20.12
57572;BME280;44459;43.522;24.470;2022-07-23T13:05:21;100034.06;;;39.84;20.62
57572;BME280;44459;43.522;24.470;2022-07-23T13:07:46;100034.91;;;40.07;21.22
57572;BME280;44459;43.522;24.470;2022-07-23T13:10:12;100024.22;;;40.04;20.51
57572;BME280;44459;43.522;24.470;2022-07-23T13:12:37;100023.94;;;39.99;19.60
57572;BME280;44459;43.522;24.470;2022-07-23T13:15:02;100025.03;;;39.90;20.25
57572;BME280;44459;43.522;24.470;2022-07-23T13:17:28;100031.34;;;39.76;19.99
57572;BME280;44459;43.522;24.470;2022-07-23T13:19:53;100021.69;;;39.71;19.86
57572;BME280;44459;43.522;24.470;2022-07-23T13:22:18;100014.44;;;39.93;20.36
57572;BME280;44459;43.522;24.470;2022-07-23T13:24:44;100018.44;;;39.91;19.89